Time;durP1;ratioP1;P1;durP2;ratioP2;P2;SDS_P1;SDS_P2;PMS_P1;PMS_P2;Temp;Humidity;BMP_temperature;BMP_pressure;BME280_temperature;BME280_humidity;BME280_pressure;Samples;Min_cycle;Max_cycle;Signal;HPM_P1;HPM_P2
2023/02/10 00:00:16;;;;;;;1.67;0.75;;;24.30;45.80;;;;;;5011615;28;20573;-52
2023/02/10 00:02:47;;;;;;;1.08;0.70;;;24.40;45.90;;;;;;5011891;28;20209;-49
2023/02/10 00:05:18;;;;;;;2.08;0.90;;;24.40;45.80;;;;;;5011615;28;20223;-49
2023/02/10 00:07:48;;;;;;;2.13;0.88;;;24.40;45.80;;;;;;5011494;28;20197;-51
2023/02/10 00:10:19;;;;;;;2.95;1.10;;;24.40;45.80;;;;;;5011309;28;20225;-50
2023/02/10 00:12:50;;;;;;;2.65;0.77;;;24.50;45.90;;;;;;5011393;28;20204;-51
2023/02/10 00:15:22;;;;;;;3.60;1.05;;;24.50;45.90;;;;;;5010977;28;20197;-50
2023/02/10 00:17:53;;;;;;;3.03;1.02;;;24.50;46.00;;;;;;5011531;28;20609;-51
2023/02/10 00:20:23;;;;;;;2.47;0.82;;;24.50;46.00;;;;;;5011502;28;20213;-51
2023/02/10 00:22:54;;;;;;;2.50;1.10;;;24.50;46.10;;;;;;5011621;28;20208;-49
2023/02/10 00:25:25;;;;;;;3.22;1.02;;;24.60;46.10;;;;;;5012166;28;20204;-52
2023/02/10 00:27:55;;;;;;;1.80;0.70;;;24.60;46.10;;;;;;5011680;28;20701;-50
2023/02/10 00:30:28;;;;;;;3.17;0.80;;;24.60;46.10;;;;;;5011259;28;20597;-52
2023/02/10 00:32:59;;;;;;;2.53;1.10;;;24.60;46.20;;;;;;5011505;28;20216;-49
2023/02/10 00:35:30;;;;;;;3.22;1.00;;;24.70;46.10;;;;;;5012081;28;20196;-52
2023/02/10 00:38:01;;;;;;;2.08;0.95;;;24.70;46.10;;;;;;5011203;28;20219;-52
2023/02/10 00:40:31;;;;;;;2.05;0.70;;;24.70;46.10;;;;;;5011308;28;20220;-50
2023/02/10 00:43:02;;;;;;;1.70;0.82;;;24.70;46.10;;;;;;5011709;28;20528;-51
2023/02/10 00:45:35;;;;;;;2.92;1.05;;;24.70;46.10;;;;;;5011621;28;20197;-51
2023/02/10 00:48:05;;;;;;;1.50;0.75;;;24.70;46.10;;;;;;5010862;28;20197;-52
2023/02/10 00:50:36;;;;;;;1.70;0.65;;;24.70;46.10;;;;;;5010774;28;20312;-52
2023/02/10 00:53:07;;;;;;;2.78;1.15;;;24.80;46.10;;;;;;5011158;28;20197;-50
2023/02/10 00:55:37;;;;;;;3.25;1.10;;;24.80;46.00;;;;;;5011415;28;20207;-49
2023/02/10 00:58:08;;;;;;;2.20;0.85;;;24.80;46.00;;;;;;5015544;28;20205;-50
2023/02/10 01:00:41;;;;;;;2.50;1.00;;;24.80;46.00;;;;;;5014876;28;20225;-52
2023/02/10 01:03:11;;;;;;;2.47;1.10;;;24.80;46.00;;;;;;5011624;28;20196;-49
2023/02/10 01:05:42;;;;;;;5.47;1.30;;;24.80;46.00;;;;;;5011699;28;20197;-49
2023/02/10 01:08:13;;;;;;;4.40;1.00;;;24.90;46.10;;;;;;5014347;28;20205;-51
2023/02/10 01:10:44;;;;;;;2.20;0.93;;;24.90;46.20;;;;;;5014601;28;20236;-49
2023/02/10 01:13:16;;;;;;;3.75;1.10;;;24.90;46.20;;;;;;5014698;28;20207;-50
2023/02/10 01:15:49;;;;;;;2.42;1.10;;;24.90;46.20;;;;;;5014596;28;20351;-49
2023/02/10 01:18:20;;;;;;;2.53;0.90;;;24.90;46.10;;;;;;5014566;28;20204;-48
2023/02/10 01:20:51;;;;;;;3.22;0.95;;;24.90;46.20;;;;;;5014675;28;20200;-50
2023/02/10 01:23:21;;;;;;;2.05;0.90;;;24.90;46.10;;;;;;5014675;28;20201;-49
2023/02/10 01:25:52;;;;;;;2.65;0.82;;;24.90;46.20;;;;;;5015014;28;20201;-52
2023/02/10 01:28:23;;;;;;;2.13;0.90;;;24.90;46.20;;;;;;5014480;28;20205;-51
2023/02/10 01:30:55;;;;;;;3.35;1.10;;;24.90;46.20;;;;;;5014510;28;20228;-49
2023/02/10 01:33:26;;;;;;;3.92;1.33;;;25.00;46.20;;;;;;5014491;28;20571;-50
2023/02/10 01:35:57;;;;;;;3.22;1.10;;;25.00;46.20;;;;;;5014601;28;20263;-50
2023/02/10 01:38:27;;;;;;;3.72;1.00;;;25.00;46.20;;;;;;5013934;28;20208;-52
2023/02/10 01:40:58;;;;;;;2.30;1.30;;;25.00;46.20;;;;;;5014208;28;20205;-49
2023/02/10 01:43:29;;;;;;;2.35;1.00;;;25.10;46.10;;;;;;5014224;28;20197;-49
2023/02/10 01:46:01;;;;;;;2.88;1.13;;;25.10;46.10;;;;;;5014172;28;20672;-49
2023/02/10 01:48:34;;;;;;;2.03;0.85;;;25.10;46.10;;;;;;5013505;28;20201;-49
2023/02/10 01:51:08;;;;;;;2.05;1.00;;;25.10;46.10;;;;;;5013733;28;20592;-50
2023/02/10 01:53:39;;;;;;;3.78;1.17;;;25.10;46.10;;;;;;5013421;28;20197;-50
2023/02/10 01:56:11;;;;;;;2.13;1.17;;;25.10;46.10;;;;;;5014056;28;20201;-52
2023/02/10 01:58:44;;;;;;;2.47;1.10;;;25.10;46.00;;;;;;5013976;28;20225;-52
2023/02/10 02:01:16;;;;;;;2.10;0.90;;;25.20;46.10;;;;;;5013808;28;20240;-48
2023/02/10 02:03:47;;;;;;;2.50;1.10;;;25.20;46.10;;;;;;5013895;28;20212;-50
2023/02/10 02:06:18;;;;;;;3.63;1.00;;;25.20;46.10;;;;;;5013792;28;20649;-49
2023/02/10 02:08:49;;;;;;;3.00;1.27;;;25.20;46.00;;;;;;5012971;28;20723;-48
2023/02/10 02:11:24;;;;;;;3.10;1.02;;;25.30;46.10;;;;;;5013331;28;20228;-50
2023/02/10 02:14:17;;;;;;;4.03;1.10;;;25.30;46.10;;;;;;5013278;28;20196;-50
2023/02/10 02:17:02;;;;;;;3.17;1.10;;;25.30;46.00;;;;;;5013399;28;20204;-48
2023/02/10 02:23:40;;;;;;;3.58;1.00;;;25.30;45.90;;;;;;5013770;28;20196;-50
2023/02/10 02:26:50;;;;;;;2.60;1.15;;;25.30;45.90;;;;;;4978271;28;20563;-51
2023/02/10 02:29:44;;;;;;;3.17;1.10;;;25.40;45.90;;;;;;5012780;28;20227;-48
2023/02/10 02:32:20;;;;;;;3.40;1.05;;;25.40;45.80;;;;;;5013178;28;20201;-49
2023/02/10 02:34:56;;;;;;;2.60;0.90;;;25.40;45.80;;;;;;5013238;28;20693;-50
2023/02/10 02:37:29;;;;;;;1.92;0.93;;;25.40;45.80;;;;;;5012809;28;20200;-52
2023/02/10 02:39:59;;;;;;;2.78;1.13;;;25.50;45.90;;;;;;5013092;28;20231;-51
2023/02/10 02:42:32;;;;;;;3.90;1.40;;;25.50;45.90;;;;;;5013146;28;20219;-50
2023/02/10 02:45:05;;;;;;;1.95;0.90;;;25.50;45.90;;;;;;5013303;28;20665;-51
2023/02/10 02:47:47;;;;;;;2.55;0.90;;;25.50;45.80;;;;;;5012628;28;20192;-52
2023/02/10 02:50:26;;;;;;;3.17;1.10;;;25.50;45.80;;;;;;5012484;28;20594;-49
2023/02/10 02:53:10;;;;;;;2.47;1.10;;;25.50;45.70;;;;;;5013125;28;20197;-48
2023/02/10 02:55:52;;;;;;;4.90;1.20;;;25.50;45.70;;;;;;5010325;28;20195;-49
2023/02/10 02:58:32;;;;;;;3.58;1.27;;;25.60;45.70;;;;;;5012690;28;20204;-52
2023/02/10 03:01:07;;;;;;;3.00;1.08;;;25.60;45.60;;;;;;5012633;28;20197;-51
2023/02/10 03:03:40;;;;;;;2.78;1.10;;;25.60;45.60;;;;;;5013033;28;20203;-53
2023/02/10 03:06:11;;;;;;;3.08;0.98;;;25.60;45.60;;;;;;5011367;28;20197;-51
2023/02/10 03:08:43;;;;;;;1.77;0.80;;;25.60;45.60;;;;;;5011222;28;20228;-52
2023/02/10 03:11:14;;;;;;;3.80;1.00;;;25.70;45.70;;;;;;5012196;28;20229;-52
2023/02/10 03:13:45;;;;;;;1.77;0.93;;;25.70;45.60;;;;;;5012068;28;20193;-51
2023/02/10 03:16:15;;;;;;;3.45;1.23;;;25.70;45.60;;;;;;5012244;28;20586;-52
2023/02/10 03:18:48;;;;;;;2.78;1.02;;;25.70;45.60;;;;;;5011898;28;20216;-50
2023/02/10 03:21:19;;;;;;;3.58;1.13;;;25.70;45.60;;;;;;5012465;28;20192;-51
2023/02/10 03:23:49;;;;;;;2.30;0.95;;;25.70;45.50;;;;;;5011927;28;20548;-52
2023/02/10 03:26:20;;;;;;;3.00;1.17;;;25.70;45.50;;;;;;5012318;28;20208;-52
2023/02/10 03:28:51;;;;;;;3.72;1.20;;;25.80;45.50;;;;;;5012277;28;20719;-53
2023/02/10 03:31:22;;;;;;;2.58;1.15;;;25.80;45.50;;;;;;5011838;28;20224;-54
2023/02/10 03:33:55;;;;;;;3.08;1.10;;;25.80;45.50;;;;;;5011615;28;20203;-48
2023/02/10 03:36:25;;;;;;;4.03;1.13;;;25.80;45.50;;;;;;5011414;28;20204;-53
2023/02/10 03:38:56;;;;;;;2.85;1.10;;;25.80;45.40;;;;;;5011992;28;20224;-50
2023/02/10 03:41:27;;;;;;;3.97;1.00;;;25.80;45.40;;;;;;5011731;28;20548;-50
2023/02/10 03:43:57;;;;;;;3.28;1.10;;;25.80;45.40;;;;;;5011808;28;20216;-53
2023/02/10 03:46:28;;;;;;;4.00;1.00;;;25.80;45.40;;;;;;5012008;28;20196;-49
2023/02/10 03:49:01;;;;;;;2.30;0.98;;;25.80;45.30;;;;;;5011087;28;20236;-49
2023/02/10 03:51:31;;;;;;;1.83;0.95;;;25.90;45.40;;;;;;5011614;28;20228;-51
2023/02/10 03:54:02;;;;;;;4.45;1.25;;;25.80;45.30;;;;;;5011952;28;20215;-49
2023/02/10 03:56:33;;;;;;;3.30;1.05;;;25.80;45.30;;;;;;5011782;28;20205;-50
2023/02/10 03:59:05;;;;;;;3.47;1.10;;;25.80;45.30;;;;;;5011989;28;20225;-48
2023/02/10 04:01:36;;;;;;;2.78;1.20;;;25.90;45.40;;;;;;5011742;28;20208;-51
2023/02/10 04:04:08;;;;;;;3.60;1.13;;;25.90;45.40;;;;;;5011837;28;20192;-51
2023/02/10 04:06:39;;;;;;;3.35;1.50;;;25.90;45.40;;;;;;5011380;28;20212;-49
2023/02/10 04:09:09;;;;;;;3.50;0.98;;;25.90;45.40;;;;;;5011562;28;20213;-51
2023/02/10 04:11:40;;;;;;;3.33;1.10;;;25.90;45.40;;;;;;5011720;28;20239;-51
2023/02/10 04:14:11;;;;;;;3.22;1.25;;;25.90;45.40;;;;;;5011850;28;20200;-53
2023/02/10 04:16:42;;;;;;;2.38;1.23;;;26.00;45.40;;;;;;5011704;28;20366;-49
2023/02/10 04:19:14;;;;;;;2.15;0.90;;;26.00;45.40;;;;;;5011735;28;20221;-50
2023/02/10 04:21:45;;;;;;;3.35;1.00;;;26.00;45.40;;;;;;5011686;28;20197;-51
2023/02/10 04:24:15;;;;;;;2.95;1.20;;;26.00;45.30;;;;;;5011428;28;20207;-50
2023/02/10 04:26:46;;;;;;;3.17;1.40;;;26.00;45.40;;;;;;5011451;28;20218;-48
2023/02/10 04:29:17;;;;;;;4.32;1.40;;;26.00;45.30;;;;;;5011338;28;20809;-49
2023/02/10 04:31:47;;;;;;;2.90;1.00;;;26.00;45.30;;;;;;5014586;28;20603;-50
2023/02/10 04:34:20;;;;;;;2.30;1.15;;;26.00;45.30;;;;;;5015350;28;20219;-52
2023/02/10 04:36:51;;;;;;;2.85;1.17;;;26.10;45.30;;;;;;5015297;28;20197;-52
2023/02/10 04:39:21;;;;;;;2.95;1.10;;;26.10;45.30;;;;;;5015626;28;20213;-49
2023/02/10 04:41:52;;;;;;;1.60;0.80;;;26.10;45.30;;;;;;5015283;28;20197;-49
2023/02/10 04:44:23;;;;;;;2.33;1.10;;;26.10;45.30;;;;;;5015387;28;20204;-48
2023/02/10 04:46:53;;;;;;;4.30;1.30;;;26.10;45.20;;;;;;5012342;28;20197;-50
2023/02/10 04:49:27;;;;;;;3.72;1.27;;;26.10;45.20;;;;;;5015127;28;20220;-52
2023/02/10 04:51:58;;;;;;;3.40;1.20;;;26.10;45.20;;;;;;5014791;28;20224;-49
2023/02/10 04:54:29;;;;;;;3.45;1.15;;;26.10;45.20;;;;;;5014609;28;20201;-50
2023/02/10 04:56:59;;;;;;;1.80;0.82;;;26.10;45.20;;;;;;5015306;28;20205;-49
2023/02/10 04:59:30;;;;;;;1.90;1.15;;;26.10;45.20;;;;;;5015254;28;20217;-50
2023/02/10 05:02:02;;;;;;;2.60;0.90;;;26.10;45.20;;;;;;5015192;28;20212;-50
2023/02/10 05:04:35;;;;;;;4.60;1.30;;;26.10;45.20;;;;;;5014027;28;20288;-50
2023/02/10 05:07:05;;;;;;;2.58;1.05;;;26.20;45.20;;;;;;5013366;28;20204;-51
2023/02/10 05:09:36;;;;;;;2.65;1.10;;;26.20;45.20;;;;;;5014458;28;20221;-49
2023/02/10 05:12:07;;;;;;;4.07;1.00;;;26.20;45.20;;;;;;5014768;28;20274;-49
2023/02/10 05:14:37;;;;;;;2.53;0.80;;;26.20;45.20;;;;;;5014913;28;20197;-52
2023/02/10 05:17:08;;;;;;;3.55;1.20;;;26.20;45.20;;;;;;5014731;28;20205;-50
2023/02/10 05:19:41;;;;;;;2.33;1.20;;;26.20;45.20;;;;;;5014730;28;20224;-49
2023/02/10 05:22:11;;;;;;;2.83;1.20;;;26.20;45.20;;;;;;5014544;28;20200;-50
2023/02/10 05:24:42;;;;;;;4.35;1.10;;;26.20;45.20;;;;;;5014079;28;20201;-52
2023/02/10 05:27:12;;;;;;;4.88;1.38;;;26.20;45.10;;;;;;5013877;28;20205;-49
2023/02/10 05:29:43;;;;;;;1.65;1.00;;;26.20;45.20;;;;;;5013380;28;20216;-47
2023/02/10 05:32:14;;;;;;;3.10;0.90;;;26.20;45.10;;;;;;5012935;28;20220;-49
2023/02/10 05:34:46;;;;;;;3.05;1.20;;;26.30;45.20;;;;;;5014291;28;20653;-50
2023/02/10 05:37:17;;;;;;;1.90;0.80;;;26.30;45.20;;;;;;5014033;28;20211;-51
2023/02/10 05:39:47;;;;;;;2.67;1.05;;;26.30;45.10;;;;;;5013791;28;20225;-50
2023/02/10 05:42:18;;;;;;;3.40;1.17;;;26.30;45.10;;;;;;5013512;28;20572;-50
2023/02/10 05:44:49;;;;;;;2.38;1.20;;;26.30;45.10;;;;;;5014315;28;20227;-51
2023/02/10 05:47:19;;;;;;;1.95;0.88;;;26.30;45.10;;;;;;5014575;28;20193;-49
2023/02/10 05:49:52;;;;;;;2.38;1.10;;;26.40;45.20;;;;;;5014037;28;20217;-49
2023/02/10 05:52:23;;;;;;;2.42;1.00;;;26.40;45.10;;;;;;5013903;28;20689;-50
2023/02/10 05:54:53;;;;;;;2.15;0.95;;;26.30;45.00;;;;;;5014144;28;20564;-52
2023/02/10 05:57:24;;;;;;;1.67;0.90;;;26.40;45.10;;;;;;5014066;28;20205;-50
2023/02/10 05:59:55;;;;;;;3.42;1.00;;;26.40;45.10;;;;;;5013775;28;20220;-48
2023/02/10 06:02:25;;;;;;;3.42;1.17;;;26.40;45.10;;;;;;5013251;28;20197;-48
2023/02/10 06:04:58;;;;;;;4.68;1.10;;;26.40;45.10;;;;;;5013403;28;20549;-51
2023/02/10 06:07:28;;;;;;;2.05;0.90;;;26.40;45.10;;;;;;5013724;28;20205;-52
2023/02/10 06:09:59;;;;;;;4.10;1.45;;;26.50;45.10;;;;;;5013890;28;20227;-51
2023/02/10 06:12:31;;;;;;;3.80;1.38;;;26.40;45.10;;;;;;5013638;28;20544;-49
2023/02/10 06:15:01;;;;;;;4.25;1.20;;;26.50;45.10;;;;;;5013491;28;20197;-53
2023/02/10 06:17:32;;;;;;;3.85;1.20;;;26.50;45.10;;;;;;5013425;28;20196;-52
2023/02/10 06:20:05;;;;;;;4.60;1.10;;;26.50;45.10;;;;;;5012907;28;20220;-49
2023/02/10 06:22:36;;;;;;;5.00;1.17;;;26.50;45.10;;;;;;5013508;28;20200;-50
2023/02/10 06:25:07;;;;;;;4.53;1.42;;;26.50;45.10;;;;;;5013215;28;20201;-51
2023/02/10 06:27:37;;;;;;;3.60;1.02;;;26.50;45.10;;;;;;5013150;28;20677;-53
2023/02/10 06:30:09;;;;;;;3.38;1.05;;;26.50;45.10;;;;;;5013246;28;20236;-52
2023/02/10 06:32:39;;;;;;;4.28;1.30;;;26.50;45.10;;;;;;5012979;28;20831;-52
2023/02/10 06:35:12;;;;;;;2.17;0.82;;;26.50;45.00;;;;;;5012865;28;20204;-50
2023/02/10 06:37:43;;;;;;;2.53;1.10;;;26.50;45.10;;;;;;5013238;28;20575;-52
2023/02/10 06:40:15;;;;;;;3.95;1.20;;;26.50;45.10;;;;;;5013593;28;20224;-52
2023/02/10 06:42:45;;;;;;;2.45;1.23;;;26.50;45.10;;;;;;5013373;28;20223;-54
2023/02/10 06:45:16;;;;;;;2.05;1.10;;;26.50;45.10;;;;;;5013070;28;20283;-53
2023/02/10 06:47:47;;;;;;;2.63;1.15;;;26.50;45.10;;;;;;5009667;28;20220;-49
2023/02/10 06:50:19;;;;;;;4.53;1.48;;;26.50;45.10;;;;;;5012588;28;20224;-51
2023/02/10 06:52:50;;;;;;;5.70;1.33;;;26.50;45.10;;;;;;5012863;28;20229;-51
2023/02/10 06:55:21;;;;;;;3.50;1.05;;;26.50;45.10;;;;;;5012087;28;20205;-52
2023/02/10 06:57:52;;;;;;;2.95;1.10;;;26.50;45.10;;;;;;5012989;28;20200;-52
2023/02/10 07:00:22;;;;;;;4.03;1.00;;;26.50;45.10;;;;;;5012819;28;20717;-51
2023/02/10 07:02:53;;;;;;;3.63;1.15;;;26.50;45.00;;;;;;5012961;28;20200;-52
2023/02/10 07:05:26;;;;;;;3.00;1.15;;;26.50;45.10;;;;;;5012806;28;20208;-50
2023/02/10 07:07:58;;;;;;;2.85;1.30;;;26.40;45.10;;;;;;5012320;28;20657;-52
2023/02/10 07:10:29;;;;;;;3.05;1.08;;;26.50;45.10;;;;;;5012314;28;20311;-51
2023/02/10 07:13:00;;;;;;;2.55;0.90;;;26.40;45.10;;;;;;5009250;28;20561;-52
2023/02/10 07:15:31;;;;;;;2.72;1.05;;;26.40;45.10;;;;;;5012378;28;20197;-52
2023/02/10 07:18:01;;;;;;;2.33;1.00;;;26.40;45.10;;;;;;5012240;28;20294;-52
2023/02/10 07:20:36;;;;;;;2.28;1.10;;;26.40;45.10;;;;;;5012416;28;20217;-50
2023/02/10 07:23:06;;;;;;;2.60;0.90;;;26.40;45.10;;;;;;5011509;28;20563;-49
2023/02/10 07:25:37;;;;;;;3.00;1.10;;;26.40;45.10;;;;;;5011774;28;20200;-52
2023/02/10 07:28:08;;;;;;;1.75;0.80;;;26.40;45.10;;;;;;5012262;28;20652;-50
2023/02/10 07:30:39;;;;;;;2.40;1.00;;;26.40;45.10;;;;;;5012511;28;20224;-50
2023/02/10 07:33:10;;;;;;;2.63;1.00;;;26.30;45.00;;;;;;5012363;28;20204;-49
2023/02/10 07:35:42;;;;;;;2.13;0.90;;;26.30;45.10;;;;;;5012135;28;20201;-54
2023/02/10 07:38:13;;;;;;;3.33;1.25;;;26.30;45.10;;;;;;5012188;28;20664;-49
2023/02/10 07:40:44;;;;;;;1.63;0.82;;;26.30;45.10;;;;;;5012416;28;20304;-50
2023/02/10 07:43:16;;;;;;;2.53;1.20;;;26.30;45.10;;;;;;5011795;28;20220;-50
2023/02/10 07:45:46;;;;;;;2.22;1.10;;;26.20;45.00;;;;;;5011575;28;20280;-50
2023/02/10 07:48:17;;;;;;;2.47;0.95;;;26.20;45.10;;;;;;5011807;28;20199;-48
2023/02/10 07:50:51;;;;;;;3.63;1.05;;;26.20;45.10;;;;;;5011739;28;20216;-50
2023/02/10 07:53:22;;;;;;;3.20;1.40;;;26.20;45.10;;;;;;5011880;28;20203;-51
2023/02/10 07:55:53;;;;;;;3.90;1.48;;;26.20;45.10;;;;;;5011851;28;20224;-51
2023/02/10 07:58:23;;;;;;;3.13;1.20;;;26.20;45.10;;;;;;5011161;28;20181;-49
2023/02/10 08:00:54;;;;;;;2.30;0.90;;;26.20;45.20;;;;;;4991662;28;20661;-49
2023/02/10 08:03:25;;;;;;;3.90;1.20;;;26.10;45.10;;;;;;4992044;28;20213;-50
2023/02/10 08:05:57;;;;;;;2.20;1.05;;;26.10;45.10;;;;;;4991903;28;20197;-50
2023/02/10 08:08:28;;;;;;;3.50;1.30;;;26.10;45.20;;;;;;5006228;28;20572;-55
2023/02/10 08:10:59;;;;;;;2.45;1.10;;;26.10;45.10;;;;;;5011353;28;20197;-50
2023/02/10 08:13:29;;;;;;;3.20;1.00;;;26.10;45.20;;;;;;5011773;28;20668;-50
2023/02/10 08:16:00;;;;;;;3.17;1.02;;;26.10;45.20;;;;;;5011598;28;20219;-49
2023/02/10 08:18:31;;;;;;;2.10;1.00;;;26.10;45.20;;;;;;5011338;28;20208;-49
2023/02/10 08:21:05;;;;;;;2.15;0.90;;;26.10;45.10;;;;;;5011527;28;20197;-49
2023/02/10 08:23:36;;;;;;;2.47;1.00;;;26.00;45.10;;;;;;5011414;28;20195;-53
2023/02/10 08:26:08;;;;;;;3.10;1.10;;;26.00;45.10;;;;;;5011011;28;20200;-49
2023/02/10 08:28:40;;;;;;;2.10;0.95;;;26.00;45.10;;;;;;5011094;28;20652;-49
2023/02/10 08:31:12;;;;;;;3.15;1.30;;;25.90;45.10;;;;;;5010974;28;20769;-51
2023/02/10 08:33:43;;;;;;;2.10;0.93;;;25.90;45.10;;;;;;5011657;28;20615;-51
2023/02/10 08:36:17;;;;;;;3.38;1.10;;;25.90;45.10;;;;;;5011636;28;20196;-52
2023/02/10 08:38:48;;;;;;;3.17;1.40;;;25.90;45.10;;;;;;5008419;28;20183;-49
2023/02/10 08:41:19;;;;;;;2.58;1.10;;;25.90;45.20;;;;;;5010854;28;20196;-54
2023/02/10 08:43:50;;;;;;;2.53;0.90;;;25.90;45.10;;;;;;4991126;28;20201;-49
2023/02/10 08:46:20;;;;;;;2.08;0.98;;;25.90;45.10;;;;;;4991431;28;20202;-50
2023/02/10 08:48:51;;;;;;;2.67;0.90;;;25.90;45.20;;;;;;4991484;28;20217;-49
2023/02/10 08:51:24;;;;;;;2.65;0.82;;;25.80;45.10;;;;;;4992244;28;20558;-49
2023/02/10 08:53:55;;;;;;;2.70;1.17;;;25.80;45.10;;;;;;4991585;28;20347;-53
2023/02/10 08:56:26;;;;;;;2.70;1.00;;;25.80;45.10;;;;;;4991294;28;20604;-50
2023/02/10 08:58:57;;;;;;;1.92;1.05;;;25.80;45.10;;;;;;4991609;28;20222;-52
2023/02/10 09:01:28;;;;;;;1.98;0.95;;;25.80;45.10;;;;;;4991729;28;20276;-50
2023/02/10 09:03:59;;;;;;;2.15;0.80;;;25.70;45.00;;;;;;4991431;28;20197;-53
2023/02/10 09:06:38;;;;;;;1.30;0.80;;;25.70;45.10;;;;;;4991189;28;20217;-52
2023/02/10 09:09:10;;;;;;;2.33;1.02;;;25.70;45.10;;;;;;4990967;28;20221;-52
2023/02/10 09:11:41;;;;;;;2.72;0.90;;;25.70;45.10;;;;;;4991376;28;20224;-53
2023/02/10 09:14:11;;;;;;;2.20;0.98;;;25.60;45.00;;;;;;4991412;28;20194;-51
2023/02/10 09:16:42;;;;;;;1.33;0.82;;;25.60;45.00;;;;;;4991360;28;20233;-51
2023/02/10 09:19:13;;;;;;;1.75;0.80;;;25.60;45.10;;;;;;4994891;28;20228;-49
2023/02/10 09:21:46;;;;;;;4.22;1.05;;;25.60;45.10;;;;;;4987201;28;20531;-53
2023/02/10 09:24:17;;;;;;;1.42;0.82;;;25.60;45.10;;;;;;5014775;28;20208;-55
2023/02/10 09:26:48;;;;;;;2.45;0.80;;;25.50;45.10;;;;;;5012647;28;20208;-49
2023/02/10 09:29:18;;;;;;;3.30;1.08;;;25.50;45.00;;;;;;5014428;28;20464;-53
2023/02/10 09:31:49;;;;;;;3.05;1.00;;;25.50;44.90;;;;;;5013506;28;20217;-52
2023/02/10 09:34:20;;;;;;;6.32;1.42;;;25.50;44.90;;;;;;5014469;28;20765;-51
2023/02/10 09:36:57;;;;;;;3.83;1.15;;;25.50;45.00;;;;;;5014382;28;20602;-51
2023/02/10 09:39:27;;;;;;;3.20;1.30;;;25.50;45.10;;;;;;5014503;28;20271;-54
2023/02/10 09:42:05;;;;;;;3.05;1.20;;;25.40;45.10;;;;;;5014267;28;20284;-53
2023/02/10 09:44:40;;;;;;;5.32;1.20;;;25.40;45.20;;;;;;5014426;28;20192;-52
2023/02/10 09:47:36;;;;;;;5.60;1.35;;;25.40;45.30;;;;;;5014363;28;20305;-52
2023/02/10 09:50:28;;;;;;;3.40;1.30;;;25.40;46.00;;;;;;5013746;28;20569;-53
2023/02/10 09:53:09;;;;;;;3.70;1.25;;;25.40;45.30;;;;;;5012970;28;20621;-54
2023/02/10 09:55:43;;;;;;;4.85;1.60;;;25.40;45.40;;;;;;5013743;28;20197;-54
2023/02/10 09:58:20;;;;;;;3.83;1.67;;;25.40;45.40;;;;;;5013908;28;20203;-51
2023/02/10 10:00:54;;;;;;;3.38;1.65;;;25.30;46.00;;;;;;5013521;28;20283;-52
2023/02/10 10:03:37;;;;;;;3.92;1.83;;;25.30;45.50;;;;;;5013461;28;20258;-51
2023/02/10 10:06:14;;;;;;;3.72;1.60;;;25.30;45.50;;;;;;5013602;28;20208;-53
2023/02/10 10:09:01;;;;;;;4.90;1.95;;;25.30;45.50;;;;;;5013563;28;20211;-49
2023/02/10 10:11:39;;;;;;;4.33;1.60;;;25.30;45.60;;;;;;5013213;28;20204;-53
2023/02/10 10:14:20;;;;;;;4.25;1.90;;;25.30;45.70;;;;;;5013922;28;20445;-50
2023/02/10 10:17:05;;;;;;;3.83;2.03;;;25.20;45.70;;;;;;5013516;28;20201;-49
2023/02/10 10:19:47;;;;;;;3.75;1.73;;;25.20;45.70;;;;;;5013124;28;20216;-52
2023/02/10 10:22:34;;;;;;;4.15;1.85;;;25.20;45.80;;;;;;5013350;28;20535;-51
2023/02/10 10:25:39;;;;;;;5.60;2.25;;;25.20;45.80;;;;;;5013351;28;20205;-48
2023/02/10 10:28:20;;;;;;;7.28;2.38;;;25.10;45.90;;;;;;5012829;28;20208;-50
2023/02/10 10:30:55;;;;;;;4.72;2.33;;;25.10;46.00;;;;;;5012687;28;20228;-49
2023/02/10 10:33:30;;;;;;;4.75;2.50;;;25.10;46.10;;;;;;5013180;28;20231;-51
2023/02/10 10:36:01;;;;;;;5.38;2.60;;;25.10;46.10;;;;;;5010151;28;20198;-53
2023/02/10 10:38:40;;;;;;;5.03;2.45;;;25.10;46.10;;;;;;5013083;28;20291;-51
2023/02/10 10:41:15;;;;;;;4.45;2.50;;;25.10;46.20;;;;;;5013263;28;20200;-50
2023/02/10 10:43:48;;;;;;;5.65;2.35;;;25.00;46.20;;;;;;5013142;28;20196;-54
2023/02/10 10:46:26;;;;;;;4.15;2.17;;;25.00;46.20;;;;;;5013243;28;20208;-51
2023/02/10 10:48:57;;;;;;;3.92;2.20;;;25.00;46.20;;;;;;5013189;28;20200;-52
2023/02/10 10:51:28;;;;;;;4.00;2.40;;;25.00;46.20;;;;;;5013091;28;20538;-51
2023/02/10 10:54:00;;;;;;;6.20;2.05;;;25.00;46.20;;;;;;5012785;28;20235;-54
2023/02/10 10:56:39;;;;;;;4.63;2.45;;;24.90;46.20;;;;;;5012470;28;20196;-50
2023/02/10 10:59:17;;;;;;;3.60;2.15;;;24.90;46.20;;;;;;5012770;28;20692;-51
2023/02/10 11:01:49;;;;;;;4.30;2.35;;;24.90;46.20;;;;;;5012873;28;20196;-51
2023/02/10 11:04:22;;;;;;;4.43;2.28;;;24.80;46.10;;;;;;5013036;28;20201;-54
2023/02/10 11:06:54;;;;;;;3.00;2.30;;;24.80;46.10;;;;;;5012837;28;20197;-52
2023/02/10 11:09:30;;;;;;;3.90;2.28;;;24.80;46.10;;;;;;5012763;28;20216;-50
2023/02/10 11:12:10;;;;;;;4.57;1.77;;;24.80;46.10;;;;;;5012442;28;20660;-52
2023/02/10 11:14:42;;;;;;;3.78;2.15;;;24.70;46.10;;;;;;5012657;28;20258;-51
2023/02/10 11:17:28;;;;;;;4.63;2.00;;;24.70;46.00;;;;;;5012270;28;20645;-51
2023/02/10 11:20:01;;;;;;;3.90;2.03;;;24.70;46.10;;;;;;5011507;28;20220;-49
2023/02/10 11:22:32;;;;;;;4.18;2.38;;;24.70;46.10;;;;;;5010907;28;20200;-49
2023/02/10 11:25:05;;;;;;;4.10;2.03;;;24.70;46.10;;;;;;5012446;28;20680;-50
2023/02/10 11:27:38;;;;;;;4.30;2.00;;;24.70;46.10;;;;;;5012609;28;20736;-53
2023/02/10 11:30:25;;;;;;;2.95;1.73;;;24.60;46.00;;;;;;5012434;28;20220;-49
2023/02/10 11:32:57;;;;;;;4.18;2.03;;;24.60;46.00;;;;;;5012241;28;20234;-52
2023/02/10 11:35:30;;;;;;;3.85;2.08;;;24.60;46.00;;;;;;5011426;28;20195;-50
2023/02/10 11:38:04;;;;;;;4.22;2.22;;;24.50;45.90;;;;;;5012075;28;20196;-50
2023/02/10 11:40:52;;;;;;;3.40;1.73;;;24.50;46.00;;;;;;5011523;28;20220;-54
2023/02/10 11:43:30;;;;;;;3.45;1.85;;;24.50;46.00;;;;;;5012084;28;20568;-51
2023/02/10 11:46:02;;;;;;;2.97;1.88;;;24.50;46.00;;;;;;5011748;28;20199;-52
2023/02/10 11:48:32;;;;;;;2.88;1.80;;;24.50;46.00;;;;;;5012099;28;20200;-51
2023/02/10 11:51:18;;;;;;;4.97;2.05;;;24.40;46.00;;;;;;5011847;28;20216;-53
2023/02/10 11:53:50;;;;;;;4.07;1.88;;;24.40;46.00;;;;;;5012103;28;20228;-53
2023/02/10 11:58:58;;;;;;;3.03;2.00;;;24.40;46.00;;;;;;5011441;28;20232;-49
2023/02/10 11:59:28;;;;;;;3.22;1.75;;;24.40;46.00;;;;;;5011692;28;20310;-48
2023/02/10 12:02:06;;;;;;;4.43;1.80;;;24.30;45.90;;;;;;5011937;28;20201;-48
2023/02/10 12:05:03;;;;;;;3.58;1.83;;;24.30;45.90;;;;;;5011794;28;20266;-50
2023/02/10 12:07:48;;;;;;;2.92;1.50;;;24.30;46.00;;;;;;5011895;28;20200;-53
2023/02/10 12:10:27;;;;;;;2.65;1.63;;;24.30;46.00;;;;;;5011204;28;20216;-50
2023/02/10 12:13:04;;;;;;;3.92;1.48;;;24.20;45.90;;;;;;5011322;28;20231;-54
2023/02/10 12:15:49;;;;;;;4.18;1.80;;;24.20;45.90;;;;;;5011883;28;20251;-51
2023/02/10 12:18:36;;;;;;;2.50;1.33;;;24.20;45.90;;;;;;5011459;28;20196;-50
2023/02/10 12:21:20;;;;;;;2.10;1.50;;;24.20;46.00;;;;;;5011962;28;20201;-49
2023/02/10 12:24:07;;;;;;;2.33;1.52;;;24.20;46.00;;;;;;5011873;28;20197;-51
2023/02/10 12:26:44;;;;;;;2.85;1.50;;;24.10;45.90;;;;;;5011331;28;20204;-50
2023/02/10 12:29:25;;;;;;;2.45;1.58;;;24.10;46.00;;;;;;5011509;28;20212;-49
2023/02/10 12:32:08;;;;;;;2.75;1.55;;;24.10;46.00;;;;;;5011968;28;20193;-53
2023/02/10 12:34:53;;;;;;;3.15;1.52;;;24.10;46.00;;;;;;5011946;28;20680;-52
2023/02/10 12:37:35;;;;;;;3.03;1.80;;;24.00;45.90;;;;;;5010105;28;20207;-50
2023/02/10 12:40:23;;;;;;;1.92;1.35;;;24.00;46.00;;;;;;4992118;28;20221;-51
2023/02/10 12:43:07;;;;;;;2.95;1.38;;;24.00;46.00;;;;;;4992130;28;20200;-49
2023/02/10 12:45:46;;;;;;;3.17;1.65;;;24.00;46.00;;;;;;4992302;28;20207;-48
2023/02/10 12:48:30;;;;;;;2.63;1.60;;;24.00;46.00;;;;;;4991755;28;20206;-51
2023/02/10 12:51:27;;;;;;;2.53;1.55;;;24.00;46.00;;;;;;4991291;28;20220;-49
2023/02/10 12:54:02;;;;;;;2.95;1.38;;;23.90;46.00;;;;;;4995422;28;20225;-51
2023/02/10 12:56:39;;;;;;;2.50;1.33;;;23.90;46.00;;;;;;4995718;28;20193;-50
2023/02/10 12:59:16;;;;;;;2.38;1.58;;;23.90;46.00;;;;;;4995494;28;20217;-53
2023/02/10 13:01:50;;;;;;;1.95;1.50;;;23.80;46.00;;;;;;4995792;28;20256;-49
2023/02/10 13:04:28;;;;;;;2.60;1.40;;;23.80;46.00;;;;;;4995258;28;20207;-49
2023/02/10 13:07:03;;;;;;;3.55;1.45;;;23.80;46.10;;;;;;4997614;28;20248;-49
2023/02/10 13:09:41;;;;;;;2.20;1.38;;;23.80;46.10;;;;;;5015127;28;20299;-48
2023/02/10 13:12:21;;;;;;;2.33;1.40;;;23.80;46.10;;;;;;5014920;28;20200;-50
2023/02/10 13:14:56;;;;;;;3.20;1.40;;;23.70;46.00;;;;;;5014596;28;20208;-52
2023/02/10 13:17:26;;;;;;;2.13;1.20;;;23.70;46.00;;;;;;5014642;28;20640;-49
2023/02/10 13:20:04;;;;;;;3.20;1.40;;;23.70;46.00;;;;;;5014872;28;20220;-50
2023/02/10 13:22:50;;;;;;;2.08;1.20;;;23.70;46.00;;;;;;5014896;28;20201;-48
2023/02/10 13:25:28;;;;;;;2.25;1.30;;;23.70;46.00;;;;;;5014535;28;20653;-48